FDX3954 KLAX-KSEA
Flight info
| Callsign | FDX3954 |
|---|---|
| Flight time | 2h 1m |
| Altitude | 34000 |
| Route | LADYJ4 CSTRO SHIMR LKV HAWKZ8 |
| Aircraft | MD11/H-SDE1E2E3FGHIJ2J3J4J5M1RWXY/LB1D1 |
Departure
| Time | 2026-04-26 08:32 |
|---|---|
| Airport | Los Angeles International Airport (KLAX) |
Arrival
| Time | 2026-04-26 10:34 |
|---|---|
| Airport | Seattle–Tacoma International Airport (KSEA) |
| Time | Latitude | Longitude | Altitude | Speed | Heading |
|---|---|---|---|---|---|
| 2026-04-26 08:08 | 33.93402 | -118.38838 | 133 ft | 0 kts | 173° |
| 2026-04-26 08:19 | 33.93422 | -118.38840 | 125 ft | 4 kts | 175° |
| 2026-04-26 08:19 | 33.93444 | -118.38842 | 133 ft | 4 kts | 147° |
| 2026-04-26 08:19 | 33.93460 | -118.38858 | 130 ft | 4 kts | 118° |
| 2026-04-26 08:19 | 33.93465 | -118.38882 | 133 ft | 4 kts | 77° |
| 2026-04-26 08:20 | 33.93461 | -118.38905 | 133 ft | 1 kts | 82° |
| 2026-04-26 08:20 | 33.93460 | -118.38909 | 133 ft | 0 kts | 82° |
| 2026-04-26 08:25 | 33.93461 | -118.38906 | 126 ft | 2 kts | 82° |
| 2026-04-26 08:25 | 33.93467 | -118.38842 | 129 ft | 8 kts | 83° |
| 2026-04-26 08:25 | 33.93476 | -118.38801 | 129 ft | 1 kts | 56° |
| 2026-04-26 08:25 | 33.93500 | -118.38792 | 128 ft | 7 kts | 4° |
| 2026-04-26 08:26 | 33.93543 | -118.38779 | 124 ft | 5 kts | 30° |
| 2026-04-26 08:26 | 33.93562 | -118.38740 | 128 ft | 9 kts | 70° |
| 2026-04-26 08:26 | 33.93575 | -118.38647 | 127 ft | 12 kts | 83° |
| 2026-04-26 08:26 | 33.93585 | -118.38556 | 133 ft | 10 kts | 83° |
| 2026-04-26 08:27 | 33.93592 | -118.38479 | 133 ft | 8 kts | 83° |
| 2026-04-26 08:27 | 33.93600 | -118.38403 | 133 ft | 10 kts | 83° |
| 2026-04-26 08:27 | 33.93608 | -118.38325 | 125 ft | 8 kts | 78° |
| 2026-04-26 08:27 | 33.93613 | -118.38311 | 126 ft | 0 kts | 67° |
| 2026-04-26 08:30 | 33.93639 | -118.38285 | 133 ft | 7 kts | 25° |
| 2026-04-26 08:30 | 33.93686 | -118.38282 | 130 ft | 6 kts | 356° |
| 2026-04-26 08:30 | 33.93762 | -118.38292 | 131 ft | 14 kts | 353° |
| 2026-04-26 08:30 | 33.93852 | -118.38305 | 128 ft | 12 kts | 351° |
| 2026-04-26 08:31 | 33.93924 | -118.38322 | 127 ft | 8 kts | 334° |
| 2026-04-26 08:31 | 33.93948 | -118.38369 | 126 ft | 5 kts | 282° |
| 2026-04-26 08:31 | 33.93947 | -118.38408 | 129 ft | 4 kts | 263° |
| 2026-04-26 08:31 | 33.93944 | -118.38437 | 131 ft | 3 kts | 263° |
| 2026-04-26 08:32 | 33.93915 | -118.38709 | 133 ft | 75 kts | 262° |
| 2026-04-26 08:32 | 33.93819 | -118.39644 | 131 ft | 147 kts | 263° |
| 2026-04-26 08:32 | 33.93675 | -118.41062 | 299 ft | 180 kts | 260° |
| 2026-04-26 08:32 | 33.93507 | -118.42558 | 1050 ft | 181 kts | 261° |
| 2026-04-26 08:33 | 33.93336 | -118.44063 | 1844 ft | 185 kts | 263° |
| 2026-04-26 08:33 | 33.93187 | -118.45620 | 2171 ft | 185 kts | 264° |
| 2026-04-26 08:33 | 33.93060 | -118.47157 | 2718 ft | 180 kts | 264° |
| 2026-04-26 08:33 | 33.92937 | -118.48686 | 3352 ft | 191 kts | 264° |
| 2026-04-26 08:34 | 33.92800 | -118.50372 | 3509 ft | 218 kts | 265° |
| 2026-04-26 08:34 | 33.92697 | -118.51647 | 3599 ft | 236 kts | 265° |
| 2026-04-26 08:34 | 33.92474 | -118.54406 | 4167 ft | 255 kts | 264° |
| 2026-04-26 08:34 | 33.92298 | -118.56549 | 4983 ft | 258 kts | 264° |
| 2026-04-26 08:35 | 33.92123 | -118.58707 | 5803 ft | 260 kts | 265° |
| 2026-04-26 08:35 | 33.92154 | -118.60887 | 6558 ft | 263 kts | 279° |
| 2026-04-26 08:35 | 33.92525 | -118.62289 | 7072 ft | 267 kts | 295° |
| 2026-04-26 08:35 | 33.93713 | -118.64023 | 7785 ft | 275 kts | 319° |
| 2026-04-26 08:36 | 33.95333 | -118.65297 | 8473 ft | 282 kts | 326° |
| 2026-04-26 08:36 | 33.97065 | -118.66442 | 9236 ft | 285 kts | 328° |
| 2026-04-26 08:36 | 33.98893 | -118.67431 | 9914 ft | 294 kts | 342° |
| 2026-04-26 08:36 | 34.00977 | -118.67731 | 10287 ft | 315 kts | 355° |
| 2026-04-26 08:37 | 34.03253 | -118.67670 | 10427 ft | 339 kts | 359° |
| 2026-04-26 08:37 | 34.05696 | -118.67489 | 10600 ft | 361 kts | 0° |
| 2026-04-26 08:37 | 34.08213 | -118.67470 | 11189 ft | 360 kts | 348° |
| 2026-04-26 08:37 | 34.10633 | -118.68079 | 11887 ft | 360 kts | 340° |
| 2026-04-26 08:38 | 34.13031 | -118.68978 | 12587 ft | 363 kts | 338° |
| 2026-04-26 08:38 | 34.15433 | -118.69979 | 13313 ft | 366 kts | 336° |
| 2026-04-26 08:38 | 34.17847 | -118.71005 | 13963 ft | 370 kts | 337° |
| 2026-04-26 08:38 | 34.20294 | -118.72039 | 14605 ft | 373 kts | 336° |
| 2026-04-26 08:39 | 34.22755 | -118.73068 | 15240 ft | 376 kts | 337° |
| 2026-04-26 08:39 | 34.25236 | -118.74095 | 15875 ft | 379 kts | 336° |
| 2026-04-26 08:39 | 34.27736 | -118.75126 | 16507 ft | 381 kts | 336° |
| 2026-04-26 08:39 | 34.30259 | -118.76162 | 17136 ft | 384 kts | 336° |
| 2026-04-26 08:40 | 34.32800 | -118.77205 | 17768 ft | 387 kts | 336° |
| 2026-04-26 08:40 | 34.35360 | -118.78256 | 18347 ft | 390 kts | 336° |
| 2026-04-26 08:40 | 34.37941 | -118.79315 | 18873 ft | 393 kts | 336° |
| 2026-04-26 08:40 | 34.40542 | -118.80383 | 19393 ft | 396 kts | 336° |
| 2026-04-26 08:41 | 34.43163 | -118.81460 | 19896 ft | 399 kts | 336° |
| 2026-04-26 08:41 | 34.45798 | -118.82543 | 20427 ft | 401 kts | 336° |
| 2026-04-26 08:41 | 34.48453 | -118.83635 | 20953 ft | 404 kts | 336° |
| 2026-04-26 08:41 | 34.51129 | -118.84737 | 21442 ft | 407 kts | 336° |
| 2026-04-26 08:42 | 34.53821 | -118.85845 | 21927 ft | 410 kts | 336° |
| 2026-04-26 08:42 | 34.56529 | -118.86962 | 22417 ft | 412 kts | 336° |
| 2026-04-26 08:42 | 34.59255 | -118.88086 | 22921 ft | 415 kts | 335° |
| 2026-04-26 08:42 | 34.61998 | -118.89218 | 23454 ft | 417 kts | 335° |
| 2026-04-26 08:43 | 34.64756 | -118.90358 | 23853 ft | 420 kts | 335° |
| 2026-04-26 08:43 | 34.67525 | -118.91503 | 24228 ft | 423 kts | 336° |
| 2026-04-26 08:43 | 34.70326 | -118.92661 | 24622 ft | 425 kts | 336° |
| 2026-04-26 08:43 | 34.73136 | -118.93824 | 25027 ft | 428 kts | 336° |
| 2026-04-26 08:44 | 34.75925 | -118.94980 | 25383 ft | 431 kts | 336° |
| 2026-04-26 08:44 | 34.78772 | -118.96160 | 25755 ft | 433 kts | 336° |
| 2026-04-26 08:44 | 34.81640 | -118.97349 | 26145 ft | 436 kts | 336° |
| 2026-04-26 08:44 | 34.84518 | -118.98544 | 26517 ft | 439 kts | 336° |
| 2026-04-26 08:45 | 34.87415 | -118.99749 | 26885 ft | 441 kts | 336° |
| 2026-04-26 08:45 | 34.90332 | -119.00967 | 27267 ft | 444 kts | 336° |
| 2026-04-26 08:45 | 34.93269 | -119.02195 | 27617 ft | 447 kts | 336° |
| 2026-04-26 08:45 | 34.96234 | -119.03434 | 27958 ft | 450 kts | 336° |
| 2026-04-26 08:46 | 34.99199 | -119.04671 | 28292 ft | 452 kts | 336° |
| 2026-04-26 08:46 | 35.02193 | -119.05921 | 28629 ft | 455 kts | 336° |
| 2026-04-26 08:46 | 35.05199 | -119.07176 | 28935 ft | 458 kts | 336° |
| 2026-04-26 08:46 | 35.08223 | -119.08439 | 29252 ft | 461 kts | 336° |
| 2026-04-26 08:47 | 35.11226 | -119.09694 | 29582 ft | 463 kts | 336° |
| 2026-04-26 08:47 | 35.14324 | -119.10990 | 29890 ft | 466 kts | 337° |
| 2026-04-26 08:47 | 35.17361 | -119.12260 | 30201 ft | 467 kts | 337° |
| 2026-04-26 08:47 | 35.20441 | -119.13550 | 30559 ft | 468 kts | 337° |
| 2026-04-26 08:48 | 35.23525 | -119.14842 | 30923 ft | 467 kts | 337° |
| 2026-04-26 08:48 | 35.26604 | -119.16133 | 31284 ft | 467 kts | 337° |
| 2026-04-26 08:48 | 35.29676 | -119.17423 | 31629 ft | 467 kts | 336° |
| 2026-04-26 08:48 | 35.32754 | -119.18717 | 31972 ft | 467 kts | 336° |
| 2026-04-26 08:49 | 35.35834 | -119.20012 | 32304 ft | 467 kts | 336° |
| 2026-04-26 08:49 | 35.38912 | -119.21288 | 32627 ft | 468 kts | 338° |
| 2026-04-26 08:49 | 35.41999 | -119.22393 | 32937 ft | 469 kts | 340° |
| 2026-04-26 08:49 | 35.45164 | -119.23391 | 33247 ft | 470 kts | 341° |
| 2026-04-26 08:50 | 35.48344 | -119.24333 | 33556 ft | 470 kts | 342° |
| 2026-04-26 08:50 | 35.51525 | -119.25260 | 33841 ft | 470 kts | 342° |
| 2026-04-26 08:50 | 35.57940 | -119.27151 | 33948 ft | 476 kts | 342° |
| 2026-04-26 08:51 | 35.67556 | -119.30037 | 33953 ft | 473 kts | 342° |
| 2026-04-26 08:52 | 35.73952 | -119.31972 | 33951 ft | 473 kts | 342° |
| 2026-04-26 08:52 | 35.80307 | -119.33899 | 33950 ft | 473 kts | 342° |
| 2026-04-26 08:53 | 35.86691 | -119.35835 | 33953 ft | 473 kts | 342° |
| 2026-04-26 08:53 | 35.93097 | -119.37781 | 33948 ft | 472 kts | 342° |
| 2026-04-26 08:54 | 35.99478 | -119.39723 | 33948 ft | 472 kts | 343° |
| 2026-04-26 08:54 | 36.05875 | -119.41674 | 33948 ft | 472 kts | 343° |
| 2026-04-26 08:55 | 36.12254 | -119.43622 | 33959 ft | 472 kts | 343° |
| 2026-04-26 08:55 | 36.18596 | -119.45562 | 33959 ft | 472 kts | 343° |
| 2026-04-26 08:56 | 36.24970 | -119.47521 | 33962 ft | 471 kts | 343° |
| 2026-04-26 08:56 | 36.31328 | -119.49479 | 33957 ft | 471 kts | 343° |
| 2026-04-26 08:57 | 36.37689 | -119.51437 | 33965 ft | 471 kts | 343° |
| 2026-04-26 08:57 | 36.44047 | -119.53395 | 33953 ft | 470 kts | 343° |
| 2026-04-26 08:58 | 36.50407 | -119.55356 | 33953 ft | 470 kts | 343° |
| 2026-04-26 08:58 | 36.56750 | -119.57316 | 33943 ft | 470 kts | 343° |
| 2026-04-26 08:59 | 36.63098 | -119.59281 | 33940 ft | 469 kts | 343° |
| 2026-04-26 08:59 | 36.69455 | -119.61252 | 33943 ft | 469 kts | 343° |
| 2026-04-26 09:00 | 36.75753 | -119.63208 | 33944 ft | 469 kts | 343° |
| 2026-04-26 09:00 | 36.82092 | -119.65180 | 33945 ft | 469 kts | 343° |
| 2026-04-26 09:01 | 36.88415 | -119.67151 | 33944 ft | 469 kts | 343° |
| 2026-04-26 09:01 | 36.94744 | -119.69126 | 33937 ft | 468 kts | 343° |
| 2026-04-26 09:02 | 37.01067 | -119.71104 | 33927 ft | 468 kts | 343° |
| 2026-04-26 09:02 | 37.07382 | -119.73091 | 33921 ft | 468 kts | 343° |
| 2026-04-26 09:03 | 37.13710 | -119.75083 | 33915 ft | 468 kts | 343° |
| 2026-04-26 09:03 | 37.19983 | -119.77055 | 33915 ft | 467 kts | 343° |
| 2026-04-26 09:04 | 37.26288 | -119.79040 | 33906 ft | 467 kts | 343° |
| 2026-04-26 09:04 | 37.32591 | -119.81028 | 33897 ft | 467 kts | 343° |
| 2026-04-26 09:05 | 37.38903 | -119.83023 | 33901 ft | 467 kts | 343° |
| 2026-04-26 09:05 | 37.45200 | -119.85015 | 33901 ft | 467 kts | 343° |
| 2026-04-26 09:06 | 37.51493 | -119.87011 | 33898 ft | 467 kts | 343° |
| 2026-04-26 09:06 | 37.57795 | -119.89012 | 33890 ft | 467 kts | 343° |
| 2026-04-26 09:07 | 37.64062 | -119.91006 | 33888 ft | 467 kts | 344° |
| 2026-04-26 09:07 | 37.70366 | -119.93015 | 33879 ft | 467 kts | 344° |
| 2026-04-26 09:08 | 37.76679 | -119.95031 | 33879 ft | 468 kts | 344° |
| 2026-04-26 09:08 | 37.83006 | -119.97056 | 33872 ft | 469 kts | 344° |
| 2026-04-26 09:09 | 37.89327 | -119.99092 | 33865 ft | 469 kts | 344° |
| 2026-04-26 09:09 | 37.95661 | -120.01130 | 33864 ft | 469 kts | 344° |
| 2026-04-26 09:10 | 38.01950 | -120.03153 | 33856 ft | 469 kts | 344° |
| 2026-04-26 09:10 | 38.08323 | -120.05206 | 33860 ft | 469 kts | 344° |
| 2026-04-26 09:11 | 38.14620 | -120.07237 | 33855 ft | 470 kts | 344° |
| 2026-04-26 09:11 | 38.20971 | -120.09182 | 33848 ft | 471 kts | 348° |
| 2026-04-26 09:12 | 38.27501 | -120.10087 | 33848 ft | 473 kts | 354° |
| 2026-04-26 09:12 | 38.34068 | -120.10581 | 33846 ft | 473 kts | 355° |
| 2026-04-26 09:13 | 38.40642 | -120.11106 | 33844 ft | 473 kts | 354° |
| 2026-04-26 09:13 | 38.47215 | -120.11691 | 33838 ft | 474 kts | 354° |
| 2026-04-26 09:14 | 38.53786 | -120.12297 | 33828 ft | 474 kts | 354° |
| 2026-04-26 09:14 | 38.60360 | -120.12905 | 33833 ft | 473 kts | 354° |
| 2026-04-26 09:15 | 38.66936 | -120.13512 | 33833 ft | 473 kts | 354° |
| 2026-04-26 09:15 | 38.73508 | -120.14119 | 33834 ft | 474 kts | 354° |
| 2026-04-26 09:16 | 38.80037 | -120.14724 | 33835 ft | 473 kts | 353° |
| 2026-04-26 09:16 | 38.86616 | -120.15334 | 33835 ft | 474 kts | 353° |
| 2026-04-26 09:17 | 38.93209 | -120.15947 | 33836 ft | 474 kts | 353° |
| 2026-04-26 09:17 | 38.99786 | -120.16559 | 33828 ft | 474 kts | 353° |
| 2026-04-26 09:18 | 39.06369 | -120.17174 | 33823 ft | 474 kts | 353° |
| 2026-04-26 09:18 | 39.12927 | -120.17790 | 33843 ft | 475 kts | 353° |
| 2026-04-26 09:19 | 39.19528 | -120.18409 | 33860 ft | 475 kts | 353° |
| 2026-04-26 09:19 | 39.26126 | -120.19028 | 33870 ft | 475 kts | 353° |
| 2026-04-26 09:20 | 39.32725 | -120.19648 | 33871 ft | 475 kts | 353° |
| 2026-04-26 09:20 | 39.37131 | -120.20063 | 33871 ft | 476 kts | 353° |
| 2026-04-26 09:21 | 39.43733 | -120.20685 | 33861 ft | 475 kts | 353° |
| 2026-04-26 09:21 | 39.50333 | -120.21309 | 33843 ft | 475 kts | 352° |
| 2026-04-26 09:22 | 39.56927 | -120.21933 | 33826 ft | 475 kts | 352° |
| 2026-04-26 09:22 | 39.63536 | -120.22559 | 33806 ft | 475 kts | 352° |
| 2026-04-26 09:23 | 39.70125 | -120.23185 | 33799 ft | 475 kts | 352° |
| 2026-04-26 09:23 | 39.76737 | -120.23815 | 33802 ft | 476 kts | 352° |
| 2026-04-26 09:24 | 39.83341 | -120.24445 | 33796 ft | 476 kts | 352° |
| 2026-04-26 09:24 | 39.89949 | -120.25078 | 33787 ft | 476 kts | 352° |
| 2026-04-26 09:25 | 39.96567 | -120.25714 | 33789 ft | 477 kts | 352° |
| 2026-04-26 09:25 | 40.03150 | -120.26347 | 33786 ft | 477 kts | 352° |
| 2026-04-26 09:26 | 40.09784 | -120.26984 | 33783 ft | 478 kts | 352° |
| 2026-04-26 09:26 | 40.16412 | -120.27622 | 33796 ft | 478 kts | 352° |
| 2026-04-26 09:27 | 40.23064 | -120.28264 | 33804 ft | 478 kts | 352° |
| 2026-04-26 09:27 | 40.29697 | -120.28905 | 33817 ft | 478 kts | 352° |
| 2026-04-26 09:28 | 40.36344 | -120.29549 | 33822 ft | 478 kts | 352° |
| 2026-04-26 09:28 | 40.42984 | -120.30193 | 33810 ft | 478 kts | 352° |
| 2026-04-26 09:29 | 40.49624 | -120.30839 | 33805 ft | 478 kts | 351° |
| 2026-04-26 09:29 | 40.56229 | -120.31483 | 33805 ft | 479 kts | 351° |
| 2026-04-26 09:30 | 40.62878 | -120.32132 | 33792 ft | 479 kts | 351° |
| 2026-04-26 09:30 | 40.69530 | -120.32783 | 33787 ft | 479 kts | 351° |
| 2026-04-26 09:31 | 40.76173 | -120.33437 | 33783 ft | 479 kts | 351° |
| 2026-04-26 09:31 | 40.82826 | -120.34093 | 33789 ft | 479 kts | 351° |
| 2026-04-26 09:32 | 40.89477 | -120.34748 | 33787 ft | 479 kts | 351° |
| 2026-04-26 09:32 | 40.96127 | -120.35404 | 33789 ft | 479 kts | 351° |
| 2026-04-26 09:33 | 41.02782 | -120.36061 | 33786 ft | 479 kts | 351° |
| 2026-04-26 09:33 | 41.09395 | -120.36716 | 33791 ft | 480 kts | 351° |
| 2026-04-26 09:34 | 41.16067 | -120.37378 | 33791 ft | 480 kts | 351° |
| 2026-04-26 09:34 | 41.22738 | -120.38042 | 33797 ft | 481 kts | 351° |
| 2026-04-26 09:35 | 41.29412 | -120.38706 | 33815 ft | 480 kts | 352° |
| 2026-04-26 09:35 | 41.36040 | -120.39367 | 33824 ft | 480 kts | 352° |
| 2026-04-26 09:36 | 41.42704 | -120.40034 | 33829 ft | 479 kts | 352° |
| 2026-04-26 09:36 | 41.49352 | -120.40701 | 33828 ft | 478 kts | 352° |
| 2026-04-26 09:37 | 41.55974 | -120.41367 | 33829 ft | 477 kts | 352° |
| 2026-04-26 09:37 | 41.62604 | -120.42038 | 33822 ft | 477 kts | 352° |
| 2026-04-26 09:38 | 41.69215 | -120.42706 | 33818 ft | 476 kts | 352° |
| 2026-04-26 09:38 | 41.75820 | -120.43374 | 33813 ft | 475 kts | 352° |
| 2026-04-26 09:39 | 41.82380 | -120.44039 | 33813 ft | 475 kts | 352° |
| 2026-04-26 09:39 | 41.88970 | -120.44707 | 33818 ft | 475 kts | 352° |
| 2026-04-26 09:40 | 41.95534 | -120.45375 | 33823 ft | 474 kts | 352° |
| 2026-04-26 09:40 | 42.02109 | -120.46045 | 33823 ft | 474 kts | 353° |
| 2026-04-26 09:41 | 42.08685 | -120.46717 | 33821 ft | 473 kts | 353° |
| 2026-04-26 09:41 | 42.15244 | -120.47388 | 33826 ft | 473 kts | 353° |
| 2026-04-26 09:42 | 42.21765 | -120.48056 | 33832 ft | 472 kts | 353° |
| 2026-04-26 09:42 | 42.28318 | -120.48730 | 33830 ft | 472 kts | 353° |
| 2026-04-26 09:43 | 42.34862 | -120.49403 | 33836 ft | 472 kts | 353° |
| 2026-04-26 09:43 | 42.41406 | -120.50082 | 33846 ft | 471 kts | 353° |
| 2026-04-26 09:44 | 42.47949 | -120.50777 | 33851 ft | 470 kts | 351° |
| 2026-04-26 09:44 | 42.54165 | -120.52980 | 33860 ft | 464 kts | 335° |
| 2026-04-26 09:45 | 42.60012 | -120.56656 | 33866 ft | 463 kts | 332° |
| 2026-04-26 09:45 | 42.65843 | -120.60432 | 33867 ft | 464 kts | 333° |
| 2026-04-26 09:46 | 42.71709 | -120.64078 | 33866 ft | 464 kts | 334° |
| 2026-04-26 09:46 | 42.77603 | -120.67677 | 33867 ft | 464 kts | 334° |
| 2026-04-26 09:47 | 42.83493 | -120.71271 | 33866 ft | 463 kts | 334° |
| 2026-04-26 09:47 | 42.89374 | -120.74870 | 33872 ft | 463 kts | 334° |
| 2026-04-26 09:48 | 42.95217 | -120.78456 | 33873 ft | 463 kts | 334° |
| 2026-04-26 09:48 | 43.01095 | -120.82071 | 33868 ft | 462 kts | 334° |
| 2026-04-26 09:49 | 43.06958 | -120.85685 | 33867 ft | 462 kts | 334° |
| 2026-04-26 09:49 | 43.12810 | -120.89300 | 33871 ft | 461 kts | 334° |
| 2026-04-26 09:50 | 43.18657 | -120.92919 | 33869 ft | 461 kts | 334° |
| 2026-04-26 09:50 | 43.24463 | -120.96520 | 33868 ft | 461 kts | 334° |
| 2026-04-26 09:51 | 43.30297 | -121.00161 | 33869 ft | 461 kts | 334° |
| 2026-04-26 09:51 | 43.36138 | -121.03819 | 33866 ft | 461 kts | 334° |
| 2026-04-26 09:52 | 43.41984 | -121.07475 | 33865 ft | 461 kts | 334° |
| 2026-04-26 09:52 | 43.50750 | -121.12961 | 33859 ft | 461 kts | 334° |
| 2026-04-26 09:53 | 43.56595 | -121.16630 | 33852 ft | 461 kts | 334° |
| 2026-04-26 09:53 | 43.62444 | -121.20308 | 33855 ft | 461 kts | 334° |
| 2026-04-26 09:54 | 43.68285 | -121.23990 | 33854 ft | 461 kts | 334° |
| 2026-04-26 09:54 | 43.74084 | -121.27653 | 33854 ft | 461 kts | 334° |
| 2026-04-26 09:55 | 43.79929 | -121.31356 | 33855 ft | 461 kts | 334° |
| 2026-04-26 09:55 | 43.85765 | -121.35061 | 33854 ft | 461 kts | 334° |
| 2026-04-26 09:56 | 43.91597 | -121.38761 | 33857 ft | 461 kts | 334° |
| 2026-04-26 09:56 | 43.97429 | -121.42464 | 33852 ft | 460 kts | 334° |
| 2026-04-26 09:57 | 44.03250 | -121.46167 | 33856 ft | 460 kts | 335° |
| 2026-04-26 09:57 | 44.09075 | -121.49881 | 33856 ft | 460 kts | 335° |
| 2026-04-26 09:58 | 44.14854 | -121.53574 | 33857 ft | 460 kts | 335° |
| 2026-04-26 09:58 | 44.20673 | -121.57301 | 33854 ft | 459 kts | 335° |
| 2026-04-26 09:59 | 44.25251 | -121.60238 | 33857 ft | 459 kts | 335° |
| 2026-04-26 09:59 | 44.32028 | -121.64595 | 33861 ft | 458 kts | 335° |
| 2026-04-26 10:00 | 44.37811 | -121.68324 | 33860 ft | 458 kts | 335° |
| 2026-04-26 10:00 | 44.43557 | -121.72035 | 33862 ft | 457 kts | 335° |
| 2026-04-26 10:01 | 44.49335 | -121.75775 | 33865 ft | 457 kts | 335° |
| 2026-04-26 10:01 | 44.55100 | -121.79524 | 33867 ft | 456 kts | 335° |
| 2026-04-26 10:02 | 44.60852 | -121.83288 | 33872 ft | 456 kts | 335° |
| 2026-04-26 10:02 | 44.66601 | -121.87045 | 33873 ft | 455 kts | 335° |
| 2026-04-26 10:03 | 44.72345 | -121.90798 | 33881 ft | 455 kts | 335° |
| 2026-04-26 10:03 | 44.78080 | -121.94552 | 33885 ft | 454 kts | 335° |
| 2026-04-26 10:04 | 44.83806 | -121.98307 | 33886 ft | 454 kts | 335° |
| 2026-04-26 10:04 | 44.89524 | -122.02066 | 33884 ft | 453 kts | 335° |
| 2026-04-26 10:05 | 44.95233 | -122.05828 | 33886 ft | 453 kts | 335° |
| 2026-04-26 10:05 | 45.00899 | -122.09569 | 33880 ft | 452 kts | 335° |
| 2026-04-26 10:06 | 45.06593 | -122.13337 | 33880 ft | 452 kts | 336° |
| 2026-04-26 10:06 | 45.12279 | -122.17108 | 33913 ft | 450 kts | 335° |
| 2026-04-26 10:07 | 45.16993 | -122.20241 | 33877 ft | 450 kts | 336° |
| 2026-04-26 10:07 | 45.22661 | -122.24016 | 33870 ft | 449 kts | 336° |
| 2026-04-26 10:08 | 45.28316 | -122.27791 | 33868 ft | 449 kts | 335° |
| 2026-04-26 10:08 | 45.33966 | -122.31602 | 33869 ft | 448 kts | 335° |
| 2026-04-26 10:09 | 45.39562 | -122.35384 | 33865 ft | 448 kts | 335° |
| 2026-04-26 10:09 | 45.45205 | -122.39193 | 33869 ft | 448 kts | 335° |
| 2026-04-26 10:10 | 45.50834 | -122.42997 | 33869 ft | 447 kts | 335° |
| 2026-04-26 10:10 | 45.56462 | -122.46806 | 33866 ft | 447 kts | 335° |
| 2026-04-26 10:11 | 45.62075 | -122.50615 | 33837 ft | 446 kts | 335° |
| 2026-04-26 10:11 | 45.64871 | -122.52515 | 33577 ft | 439 kts | 335° |
| 2026-04-26 10:11 | 45.67606 | -122.54378 | 33287 ft | 434 kts | 335° |
| 2026-04-26 10:12 | 45.70325 | -122.56230 | 32898 ft | 433 kts | 335° |
| 2026-04-26 10:12 | 45.73023 | -122.58052 | 32384 ft | 433 kts | 338° |
| 2026-04-26 10:12 | 45.75862 | -122.59470 | 31871 ft | 432 kts | 346° |
| 2026-04-26 10:12 | 45.78790 | -122.60404 | 31357 ft | 432 kts | 349° |
| 2026-04-26 10:13 | 45.81757 | -122.61127 | 30839 ft | 432 kts | 351° |
| 2026-04-26 10:13 | 45.84728 | -122.61787 | 30332 ft | 433 kts | 351° |
| 2026-04-26 10:13 | 45.87715 | -122.62455 | 29803 ft | 433 kts | 351° |
| 2026-04-26 10:13 | 45.90684 | -122.63142 | 29226 ft | 433 kts | 351° |
| 2026-04-26 10:14 | 45.93678 | -122.63858 | 28703 ft | 434 kts | 350° |
| 2026-04-26 10:14 | 45.96660 | -122.64588 | 28182 ft | 435 kts | 351° |
| 2026-04-26 10:14 | 45.99652 | -122.65329 | 27663 ft | 437 kts | 350° |
| 2026-04-26 10:14 | 46.02653 | -122.66077 | 27132 ft | 438 kts | 350° |
| 2026-04-26 10:15 | 46.05652 | -122.66827 | 26606 ft | 438 kts | 351° |
| 2026-04-26 10:15 | 46.08625 | -122.67562 | 26084 ft | 440 kts | 351° |
| 2026-04-26 10:15 | 46.11697 | -122.68246 | 25524 ft | 441 kts | 352° |
| 2026-04-26 10:15 | 46.14739 | -122.68867 | 24964 ft | 441 kts | 353° |
| 2026-04-26 10:16 | 46.17726 | -122.69455 | 24418 ft | 437 kts | 353° |
| 2026-04-26 10:16 | 46.20729 | -122.70041 | 23865 ft | 434 kts | 353° |
| 2026-04-26 10:16 | 46.23750 | -122.70631 | 23283 ft | 431 kts | 353° |
| 2026-04-26 10:16 | 46.26671 | -122.71206 | 22678 ft | 427 kts | 353° |
| 2026-04-26 10:17 | 46.29604 | -122.71787 | 22115 ft | 424 kts | 353° |
| 2026-04-26 10:17 | 46.32520 | -122.72239 | 21571 ft | 420 kts | 356° |
| 2026-04-26 10:17 | 46.35429 | -122.72460 | 21009 ft | 417 kts | 358° |
| 2026-04-26 10:17 | 46.38317 | -122.72572 | 20459 ft | 413 kts | 359° |
| 2026-04-26 10:18 | 46.41185 | -122.72649 | 19911 ft | 410 kts | 359° |
| 2026-04-26 10:18 | 46.44027 | -122.72723 | 19367 ft | 407 kts | 359° |
| 2026-04-26 10:18 | 46.46848 | -122.72804 | 18827 ft | 404 kts | 359° |
| 2026-04-26 10:18 | 46.49652 | -122.72893 | 18301 ft | 401 kts | 359° |
| 2026-04-26 10:19 | 46.52430 | -122.72988 | 17707 ft | 398 kts | 359° |
| 2026-04-26 10:19 | 46.55192 | -122.73086 | 17154 ft | 395 kts | 359° |
| 2026-04-26 10:19 | 46.57931 | -122.73184 | 16616 ft | 393 kts | 359° |
| 2026-04-26 10:19 | 46.60658 | -122.73284 | 16096 ft | 391 kts | 359° |
| 2026-04-26 10:20 | 46.63377 | -122.73383 | 15574 ft | 389 kts | 359° |
| 2026-04-26 10:20 | 46.66083 | -122.73482 | 15109 ft | 387 kts | 359° |
| 2026-04-26 10:20 | 46.68720 | -122.73578 | 14884 ft | 377 kts | 359° |
| 2026-04-26 10:20 | 46.71253 | -122.73672 | 14804 ft | 352 kts | 359° |
| 2026-04-26 10:21 | 46.73615 | -122.73760 | 14708 ft | 329 kts | 359° |
| 2026-04-26 10:21 | 46.75855 | -122.73834 | 14482 ft | 317 kts | 1° |
| 2026-04-26 10:21 | 46.78037 | -122.73517 | 14054 ft | 315 kts | 15° |
| 2026-04-26 10:21 | 46.80008 | -122.72205 | 13569 ft | 311 kts | 33° |
| 2026-04-26 10:22 | 46.81734 | -122.70330 | 13129 ft | 309 kts | 38° |
| 2026-04-26 10:22 | 46.83392 | -122.68319 | 12716 ft | 309 kts | 39° |
| 2026-04-26 10:22 | 46.85008 | -122.66235 | 12196 ft | 310 kts | 42° |
| 2026-04-26 10:22 | 46.86562 | -122.64086 | 11754 ft | 304 kts | 43° |
| 2026-04-26 10:23 | 46.88080 | -122.61955 | 11477 ft | 302 kts | 43° |
| 2026-04-26 10:23 | 46.89561 | -122.59878 | 11360 ft | 287 kts | 43° |
| 2026-04-26 10:23 | 46.90959 | -122.57879 | 11055 ft | 279 kts | 45° |
| 2026-04-26 10:23 | 46.92319 | -122.55844 | 10617 ft | 279 kts | 45° |
| 2026-04-26 10:24 | 46.93665 | -122.53809 | 10240 ft | 274 kts | 46° |
| 2026-04-26 10:24 | 46.94975 | -122.51823 | 9879 ft | 270 kts | 46° |
| 2026-04-26 10:24 | 46.96273 | -122.49856 | 9507 ft | 267 kts | 46° |
| 2026-04-26 10:24 | 46.97551 | -122.47941 | 9274 ft | 257 kts | 42° |
| 2026-04-26 10:25 | 46.98948 | -122.46411 | 8981 ft | 250 kts | 33° |
| 2026-04-26 10:25 | 47.00440 | -122.45076 | 8539 ft | 252 kts | 31° |
| 2026-04-26 10:25 | 47.01948 | -122.43783 | 8132 ft | 250 kts | 30° |
| 2026-04-26 10:25 | 47.03444 | -122.42508 | 7757 ft | 247 kts | 30° |
| 2026-04-26 10:26 | 47.04905 | -122.41265 | 7375 ft | 244 kts | 30° |
| 2026-04-26 10:26 | 47.06370 | -122.40018 | 7001 ft | 242 kts | 30° |
| 2026-04-26 10:26 | 47.07824 | -122.38780 | 6631 ft | 241 kts | 30° |
| 2026-04-26 10:26 | 47.09273 | -122.37547 | 6279 ft | 240 kts | 30° |
| 2026-04-26 10:27 | 47.10702 | -122.36329 | 6043 ft | 233 kts | 30° |
| 2026-04-26 10:27 | 47.12142 | -122.35221 | 6017 ft | 237 kts | 21° |
| 2026-04-26 10:27 | 47.13722 | -122.34468 | 5752 ft | 244 kts | 16° |
| 2026-04-26 10:27 | 47.15383 | -122.33799 | 5242 ft | 248 kts | 15° |
| 2026-04-26 10:28 | 47.17012 | -122.33165 | 4869 ft | 241 kts | 15° |
| 2026-04-26 10:28 | 47.18614 | -122.32546 | 4479 ft | 236 kts | 14° |
| 2026-04-26 10:28 | 47.20184 | -122.31940 | 4102 ft | 230 kts | 14° |
| 2026-04-26 10:28 | 47.21716 | -122.31356 | 4023 ft | 227 kts | 12° |
| 2026-04-26 10:29 | 47.23205 | -122.31078 | 3908 ft | 203 kts | 4° |
| 2026-04-26 10:29 | 47.24570 | -122.30974 | 3678 ft | 191 kts | 2° |
| 2026-04-26 10:29 | 47.25820 | -122.30960 | 3426 ft | 169 kts | 1° |
| 2026-04-26 10:29 | 47.26985 | -122.30956 | 3241 ft | 166 kts | 1° |
| 2026-04-26 10:30 | 47.28139 | -122.30949 | 3053 ft | 168 kts | 1° |
| 2026-04-26 10:30 | 47.29312 | -122.30954 | 2872 ft | 162 kts | 0° |
| 2026-04-26 10:30 | 47.30464 | -122.30956 | 2614 ft | 165 kts | 1° |
| 2026-04-26 10:30 | 47.31599 | -122.30926 | 2402 ft | 166 kts | 1° |
| 2026-04-26 10:31 | 47.32742 | -122.30888 | 2194 ft | 163 kts | 1° |
| 2026-04-26 10:31 | 47.33908 | -122.30870 | 2014 ft | 167 kts | 1° |
| 2026-04-26 10:31 | 47.35051 | -122.30864 | 1807 ft | 165 kts | 0° |
| 2026-04-26 10:31 | 47.36203 | -122.30866 | 1631 ft | 162 kts | 1° |
| 2026-04-26 10:32 | 47.37326 | -122.30843 | 1420 ft | 167 kts | 2° |
| 2026-04-26 10:32 | 47.38514 | -122.30838 | 1212 ft | 169 kts | 1° |
| 2026-04-26 10:32 | 47.39688 | -122.30831 | 982 ft | 169 kts | 1° |
| 2026-04-26 10:32 | 47.40879 | -122.30827 | 809 ft | 170 kts | 1° |
| 2026-04-26 10:33 | 47.42086 | -122.30814 | 620 ft | 174 kts | 2° |
| 2026-04-26 10:33 | 47.43265 | -122.30807 | 407 ft | 172 kts | 2° |
| 2026-04-26 10:33 | 47.44333 | -122.30793 | 391 ft | 133 kts | 0° |
| 2026-04-26 10:33 | 47.45116 | -122.30789 | 391 ft | 98 kts | 0° |
| 2026-04-26 10:34 | 47.45664 | -122.30783 | 391 ft | 60 kts | 0° |
| 2026-04-26 10:34 | 47.45974 | -122.30778 | 391 ft | 12 kts | 8° |
| 2026-04-26 10:34 | 47.46007 | -122.30730 | 391 ft | 4 kts | 68° |
| 2026-04-26 10:34 | 47.46012 | -122.30700 | 391 ft | 2 kts | 78° |
| 2026-04-26 10:35 | 47.46014 | -122.30682 | 391 ft | 1 kts | 78° |
| 2026-04-26 10:35 | 47.46017 | -122.30664 | 391 ft | 3 kts | 74° |
| 2026-04-26 10:35 | 47.46046 | -122.30628 | 391 ft | 8 kts | 22° |
| 2026-04-26 10:35 | 47.46128 | -122.30617 | 391 ft | 9 kts | 1° |
| 2026-04-26 10:36 | 47.46178 | -122.30585 | 391 ft | 8 kts | 54° |
| 2026-04-26 10:36 | 47.46184 | -122.30487 | 391 ft | 11 kts | 89° |
| 2026-04-26 10:36 | 47.46184 | -122.30381 | 391 ft | 7 kts | 91° |
| 2026-04-26 10:36 | 47.46184 | -122.30332 | 391 ft | 4 kts | 91° |
| 2026-04-26 10:37 | 47.46183 | -122.30292 | 391 ft | 4 kts | 91° |
| 2026-04-26 10:37 | 47.46182 | -122.30259 | 391 ft | 3 kts | 94° |
| 2026-04-26 10:37 | 47.46176 | -122.30202 | 391 ft | 7 kts | 99° |
| 2026-04-26 10:37 | 47.46174 | -122.30134 | 391 ft | 6 kts | 91° |
| 2026-04-26 10:38 | 47.46165 | -122.30093 | 391 ft | 2 kts | 126° |
| 2026-04-26 10:38 | 47.46149 | -122.30081 | 391 ft | 5 kts | 160° |
| 2026-04-26 10:38 | 47.46120 | -122.30077 | 391 ft | 3 kts | 179° |
| 2026-04-26 10:38 | 47.46101 | -122.30078 | 391 ft | 0 kts | 181° |